createdAt,value
2022-11-09T00:01:29.503Z,7.60
2022-11-09T00:04:03.261Z,10.27
2022-11-09T00:06:33.080Z,12.23
2022-11-09T00:09:07.344Z,11.80
2022-11-09T00:11:38.484Z,10.75
2022-11-09T00:14:06.794Z,9.75
2022-11-09T00:16:35.204Z,10.73
2022-11-09T00:19:03.103Z,12.18
2022-11-09T00:21:31.482Z,12.07
2022-11-09T00:23:59.544Z,19.40
2022-11-09T00:26:28.245Z,10.88
2022-11-09T00:28:56.893Z,13.40
2022-11-09T00:31:25.520Z,14.77
2022-11-09T00:33:55.992Z,15.35
2022-11-09T00:36:27.210Z,13.38
2022-11-09T00:39:01.287Z,12.45
2022-11-09T00:41:29.679Z,13.88
2022-11-09T00:43:57.860Z,14.85
2022-11-09T00:46:26.640Z,17.08
2022-11-09T00:48:56.503Z,10.65
2022-11-09T00:51:28.434Z,11.40
2022-11-09T00:53:57.644Z,14.60
2022-11-09T00:56:27.531Z,15.73
2022-11-09T00:58:56.147Z,20.88
2022-11-09T01:01:25.499Z,13.95
2022-11-09T01:03:54.321Z,12.88
2022-11-09T01:06:26.996Z,18.42
2022-11-09T01:08:55.615Z,10.30
2022-11-09T01:11:24.220Z,14.90
2022-11-09T01:13:55.546Z,14.30
2022-11-09T01:16:25.476Z,15.23
2022-11-09T01:18:55.486Z,13.00
2022-11-09T01:21:28.392Z,11.02
2022-11-09T01:23:58.641Z,18.25
2022-11-09T01:26:30.551Z,15.40
2022-11-09T01:28:58.742Z,12.85
2022-11-09T01:31:27.465Z,11.73
2022-11-09T01:33:55.803Z,17.77
2022-11-09T01:36:25.111Z,19.30
2022-11-09T01:38:53.847Z,22.55
2022-11-09T01:41:26.132Z,20.08
2022-11-09T01:44:13.695Z,21.70
2022-11-09T01:46:54.226Z,15.07
2022-11-09T01:49:43.543Z,14.32
2022-11-09T01:52:40.988Z,13.82
2022-11-09T01:55:17.520Z,23.48
2022-11-09T01:58:03.873Z,18.77
2022-11-09T02:00:34.958Z,9.60
2022-11-09T02:03:31.584Z,15.32
2022-11-09T02:06:04.928Z,13.60
2022-11-09T02:08:33.378Z,13.45
2022-11-09T02:11:12.641Z,16.27
2022-11-09T02:13:48.401Z,10.57
2022-11-09T02:16:17.881Z,17.30
2022-11-09T02:18:58.959Z,11.48
2022-11-09T02:21:30.159Z,12.90
2022-11-09T02:23:59.289Z,16.77
2022-11-09T02:26:36.528Z,15.15
2022-11-09T02:29:09.387Z,11.73
2022-11-09T02:31:42.519Z,16.63
2022-11-09T02:34:17.819Z,18.00
2022-11-09T02:36:45.757Z,13.57
2022-11-09T02:39:25.538Z,12.73
2022-11-09T02:42:03.618Z,10.63
2022-11-09T02:44:41.340Z,11.50
2022-11-09T02:47:09.628Z,11.15
2022-11-09T02:49:37.939Z,15.65
2022-11-09T02:52:05.961Z,15.93
2022-11-09T02:54:34.310Z,16.55
2022-11-09T02:57:03.307Z,12.15
2022-11-09T02:59:32.577Z,8.15
2022-11-09T03:02:01.037Z,11.45
2022-11-09T03:04:32.466Z,13.20
2022-11-09T03:07:02.084Z,20.08
2022-11-09T03:09:32.946Z,12.95
2022-11-09T03:12:20.738Z,7.03
2022-11-09T03:14:49.030Z,6.18
2022-11-09T03:17:18.888Z,10.05
2022-11-09T03:19:47.116Z,15.02
2022-11-09T03:22:15.599Z,9.38
2022-11-09T03:24:48.047Z,12.90
2022-11-09T03:27:18.038Z,8.98
2022-11-09T03:29:49.686Z,16.70
2022-11-09T03:32:17.949Z,12.20
2022-11-09T03:34:49.429Z,14.32
2022-11-09T03:37:18.638Z,8.30
2022-11-09T03:39:46.919Z,16.45
2022-11-09T03:42:14.759Z,10.98
2022-11-09T03:44:43.010Z,13.15
2022-11-09T03:47:10.738Z,13.45
2022-11-09T03:49:40.060Z,9.23
2022-11-09T03:52:07.960Z,13.35
2022-11-09T03:54:37.799Z,13.02
2022-11-09T03:57:05.677Z,16.50
2022-11-09T03:59:34.408Z,10.75
2022-11-09T04:02:02.399Z,15.40
2022-11-09T04:04:30.450Z,13.45
2022-11-09T04:06:58.357Z,9.23
2022-11-09T04:09:26.620Z,13.35
2022-11-09T04:11:54.511Z,11.35
2022-11-09T04:14:23.920Z,17.60
2022-11-09T04:16:51.738Z,11.48
2022-11-09T04:19:19.938Z,14.48
2022-11-09T04:21:47.717Z,25.20
2022-11-09T04:24:16.027Z,13.32
2022-11-09T04:26:43.768Z,31.45
2022-11-09T04:29:12.018Z,15.40
2022-11-09T04:31:40.582Z,13.68
2022-11-09T04:34:08.958Z,21.20
2022-11-09T04:36:36.719Z,21.52
2022-11-09T04:39:04.772Z,14.00
2022-11-09T04:41:32.548Z,17.05
2022-11-09T04:44:01.088Z,16.83
2022-11-09T04:46:29.028Z,26.13
2022-11-09T04:48:57.179Z,20.08
2022-11-09T04:51:25.204Z,15.70
2022-11-09T04:53:54.728Z,14.52
2022-11-09T04:56:22.668Z,13.90
2022-11-09T04:58:50.756Z,17.90
2022-11-09T05:01:18.808Z,12.52
2022-11-09T05:03:47.060Z,16.58
2022-11-09T05:06:33.340Z,8.48
2022-11-09T05:09:06.712Z,9.50
2022-11-09T05:11:36.468Z,15.35
2022-11-09T05:14:05.168Z,13.75
2022-11-09T05:16:33.937Z,12.65
2022-11-09T05:19:03.866Z,15.85
2022-11-09T05:21:31.962Z,13.18
2022-11-09T05:24:00.354Z,14.88
2022-11-09T05:26:39.997Z,14.98
2022-11-09T05:29:11.098Z,10.07
2022-11-09T05:31:40.380Z,14.52
2022-11-09T05:36:51.076Z,19.08
2022-11-09T05:39:18.869Z,21.10
2022-11-09T05:41:46.956Z,18.38
2022-11-09T05:44:14.878Z,11.60
2022-11-09T05:46:43.029Z,17.23
2022-11-09T05:49:10.858Z,15.18
2022-11-09T05:51:38.936Z,14.50
2022-11-09T05:54:07.330Z,20.15
2022-11-09T05:56:35.720Z,20.58
2022-11-09T05:59:03.814Z,20.63
2022-11-09T06:01:34.481Z,18.98
2022-11-09T06:04:05.458Z,20.48
2022-11-09T06:06:34.973Z,30.25
2022-11-09T06:09:03.323Z,16.40
2022-11-09T06:11:32.461Z,22.42
2022-11-09T06:14:00.540Z,18.73
2022-11-09T06:16:29.583Z,22.58
2022-11-09T06:18:57.661Z,16.90
2022-11-09T06:21:26.989Z,15.57
2022-11-09T06:23:55.081Z,26.58
2022-11-09T06:26:23.482Z,27.45
2022-11-09T06:28:51.511Z,17.98
2022-11-09T06:31:21.011Z,20.88
2022-11-09T06:33:49.181Z,22.88
2022-11-09T06:36:17.681Z,26.13
2022-11-09T06:38:50.532Z,19.40
2022-11-09T06:41:19.745Z,19.95
2022-11-09T06:43:47.894Z,23.02
2022-11-09T06:46:20.888Z,23.90
2022-11-09T06:48:54.276Z,25.88
2022-11-09T06:51:23.799Z,22.42
2022-11-09T06:53:52.030Z,23.63
2022-11-09T06:56:20.477Z,20.92
2022-11-09T06:58:48.841Z,22.45
2022-11-09T07:01:22.189Z,25.05
2022-11-09T07:03:50.411Z,28.45
2022-11-09T07:06:20.042Z,29.67
2022-11-09T07:08:48.191Z,25.08
2022-11-09T07:11:17.131Z,31.02
2022-11-09T07:13:52.301Z,28.38
2022-11-09T07:16:23.746Z,24.90
2022-11-09T07:18:51.949Z,28.73
2022-11-09T07:21:20.391Z,23.75
2022-11-09T07:23:50.040Z,37.10
2022-11-09T07:26:18.493Z,32.63
2022-11-09T07:28:46.962Z,39.92
2022-11-09T07:31:15.548Z,29.98
2022-11-09T07:33:43.868Z,26.98
2022-11-09T07:36:16.855Z,34.78
2022-11-09T07:38:47.941Z,37.45
2022-11-09T07:41:16.331Z,45.38
2022-11-09T07:43:44.425Z,37.45
2022-11-09T07:46:13.431Z,37.45
2022-11-09T07:48:41.601Z,38.22
2022-11-09T07:51:10.210Z,43.92
2022-11-09T07:53:38.963Z,35.00
2022-11-09T07:56:07.862Z,47.53
2022-11-09T07:58:37.464Z,51.95
2022-11-09T08:01:11.293Z,42.33
2022-11-09T08:03:39.422Z,44.80
2022-11-09T08:06:08.051Z,47.83
2022-11-09T08:08:36.211Z,40.15
2022-11-09T08:11:04.800Z,40.28
2022-11-09T08:13:33.110Z,51.85
2022-11-09T08:16:03.559Z,42.67
2022-11-09T08:18:32.151Z,38.03
2022-11-09T08:21:05.202Z,46.53
2022-11-09T08:23:35.189Z,39.67
2022-11-09T08:26:06.369Z,45.63
2022-11-09T08:28:35.446Z,44.13
2022-11-09T08:31:07.738Z,44.60
2022-11-09T08:33:39.045Z,47.92
2022-11-09T08:36:13.800Z,40.13
2022-11-09T08:38:43.138Z,43.45
2022-11-09T08:41:14.081Z,46.83
2022-11-09T08:43:44.468Z,44.65
2022-11-09T08:46:13.260Z,41.95
2022-11-09T08:48:41.590Z,47.72
2022-11-09T08:51:09.929Z,45.30
2022-11-09T08:53:38.229Z,50.03
2022-11-09T08:56:08.272Z,40.78
2022-11-09T08:58:37.420Z,44.88
2022-11-09T09:01:15.374Z,51.28
2022-11-09T09:03:45.269Z,56.28
2022-11-09T09:06:13.799Z,50.20
2022-11-09T09:08:42.051Z,50.25
2022-11-09T09:11:10.517Z,51.88
2022-11-09T09:13:43.131Z,50.05
2022-11-09T09:18:41.989Z,51.80
2022-11-09T09:21:12.428Z,58.72
2022-11-09T09:23:40.547Z,46.78
2022-11-09T09:26:09.064Z,51.58
2022-11-09T09:28:38.369Z,44.63
2022-11-09T09:31:07.689Z,46.95
2022-11-09T09:33:36.418Z,52.33
2022-11-09T09:36:06.398Z,52.33
2022-11-09T09:38:35.036Z,55.15
2022-11-09T09:41:06.663Z,49.20
2022-11-09T09:43:43.370Z,56.28
2022-11-09T09:46:35.849Z,49.03
2022-11-09T09:49:12.651Z,54.63
2022-11-09T09:51:59.804Z,58.05
2022-11-09T09:54:34.116Z,53.95
2022-11-09T09:57:03.677Z,50.20
2022-11-09T09:59:43.033Z,52.88
2022-11-09T10:02:23.854Z,56.75
2022-11-09T10:04:53.947Z,54.10
2022-11-09T10:07:37.406Z,52.60
2022-11-09T10:10:56.210Z,58.13
2022-11-09T10:13:27.454Z,58.42
2022-11-09T10:16:22.400Z,61.72
2022-11-09T10:19:29.106Z,57.58
2022-11-09T10:22:29.194Z,67.82
2022-11-09T10:25:23.729Z,55.55
2022-11-09T10:28:04.303Z,68.35
2022-11-09T10:30:33.547Z,68.47
2022-11-09T10:33:21.974Z,57.88
2022-11-09T10:36:09.779Z,70.22
2022-11-09T10:38:45.588Z,57.15
2022-11-09T10:41:39.827Z,63.05
2022-11-09T10:44:26.052Z,59.78
2022-11-09T10:47:16.692Z,57.08
2022-11-09T10:50:26.454Z,57.90
2022-11-09T10:53:20.405Z,49.25
2022-11-09T10:56:20.960Z,50.40
2022-11-09T10:59:29.276Z,56.63
2022-11-09T11:02:29.179Z,54.53
2022-11-09T11:05:18.705Z,71.35
2022-11-09T11:08:31.315Z,51.05
2022-11-09T11:11:35.681Z,48.37
2022-11-09T11:14:34.020Z,57.45
2022-11-09T11:17:26.547Z,58.33
2022-11-09T11:20:38.134Z,56.13
2022-11-09T11:23:27.215Z,56.47
2022-11-09T11:26:57.314Z,50.92
2022-11-09T11:29:50.933Z,53.80
2022-11-09T11:32:37.454Z,51.90
2022-11-09T11:35:40.601Z,54.13
2022-11-09T11:38:39.207Z,49.30
2022-11-09T11:41:32.035Z,51.05
2022-11-09T11:45:39.577Z,48.00
2022-11-09T11:48:52.448Z,52.30
2022-11-09T11:51:44.385Z,50.67
2022-11-09T11:55:06.339Z,56.92
2022-11-09T11:58:11.408Z,52.05
2022-11-09T12:01:16.445Z,54.75
2022-11-09T12:04:21.566Z,60.67
2022-11-09T12:07:22.889Z,47.95
2022-11-09T12:10:44.189Z,60.42
2022-11-09T12:13:57.165Z,50.05
2022-11-09T12:17:09.295Z,44.78
2022-11-09T12:20:17.905Z,49.10
2022-11-09T12:23:17.926Z,55.70
2022-11-09T12:26:40.338Z,46.63
2022-11-09T12:29:42.125Z,41.58
2022-11-09T12:32:42.930Z,42.70
2022-11-09T12:35:38.414Z,48.78
2022-11-09T12:38:51.077Z,43.33
2022-11-09T12:41:40.397Z,46.05
2022-11-09T12:44:37.936Z,40.70
2022-11-09T12:47:30.996Z,42.60
2022-11-09T12:50:20.211Z,53.13
2022-11-09T12:53:07.536Z,43.58
2022-11-09T12:56:18.850Z,45.17
2022-11-09T12:59:46.504Z,42.10
2022-11-09T13:02:44.601Z,44.92
2022-11-09T13:05:38.208Z,48.92
2022-11-09T13:08:30.653Z,45.83
2022-11-09T13:11:26.169Z,48.17
2022-11-09T13:14:31.159Z,47.17
2022-11-09T13:17:24.575Z,48.55
2022-11-09T13:26:49.036Z,40.00
2022-11-09T13:29:41.314Z,61.42
2022-11-09T13:32:31.462Z,44.38
2022-11-09T13:35:42.689Z,41.47
2022-11-09T13:38:30.954Z,48.60
2022-11-09T13:41:32.596Z,44.17
2022-11-09T13:44:32.547Z,53.85
2022-11-09T13:47:25.899Z,42.90
2022-11-09T13:50:19.721Z,43.85
2022-11-09T13:53:30.047Z,53.13
2022-11-09T13:56:36.360Z,46.03
2022-11-09T13:59:44.402Z,40.08
2022-11-09T14:02:31.600Z,35.90
2022-11-09T14:05:30.498Z,45.15
2022-11-09T14:08:28.109Z,45.35
2022-11-09T14:11:23.332Z,47.13
2022-11-09T14:14:29.736Z,39.05
2022-11-09T14:17:19.274Z,44.10
2022-11-09T14:20:18.901Z,42.10
2022-11-09T14:23:16.429Z,39.10
2022-11-09T14:26:18.638Z,37.83
2022-11-09T14:29:33.515Z,44.10
2022-11-09T14:32:32.199Z,34.45
2022-11-09T14:35:45.110Z,36.58
2022-11-09T14:38:47.838Z,38.03
2022-11-09T14:41:35.587Z,41.40
2022-11-09T14:44:35.997Z,39.35
2022-11-09T14:47:32.126Z,35.75
2022-11-09T14:50:29.753Z,38.38
2022-11-09T14:53:31.827Z,36.63
2022-11-09T14:56:20.810Z,32.05
2022-11-09T14:59:10.838Z,32.35
2022-11-09T15:02:06.138Z,32.33
2022-11-09T15:05:04.520Z,28.90
2022-11-09T15:07:51.937Z,42.78
2022-11-09T15:10:39.677Z,29.90
2022-11-09T15:13:38.954Z,26.42
2022-11-09T15:16:31.366Z,26.40
2022-11-09T15:19:37.931Z,22.88
2022-11-09T15:22:53.846Z,28.98
2022-11-09T15:25:43.746Z,18.42
2022-11-09T15:28:32.130Z,40.03
2022-11-09T15:31:23.068Z,26.65
2022-11-09T15:34:29.400Z,24.90
2022-11-09T15:37:31.135Z,25.88
2022-11-09T15:40:21.399Z,23.65
2022-11-09T15:43:08.309Z,25.70
2022-11-09T15:45:57.198Z,22.92
2022-11-09T15:48:46.294Z,25.73
2022-11-09T15:51:33.307Z,55.67
2022-11-09T15:54:21.350Z,40.20
2022-11-09T15:57:07.890Z,29.13
2022-11-09T15:59:55.067Z,58.47
2022-11-09T16:02:42.091Z,24.88
2022-11-09T16:05:29.263Z,21.10
2022-11-09T16:08:16.034Z,23.55
2022-11-09T16:11:08.402Z,28.13
2022-11-09T16:13:55.532Z,27.13
2022-11-09T16:16:42.933Z,19.55
2022-11-09T16:19:29.733Z,18.33
2022-11-09T16:22:16.950Z,17.95
2022-11-09T16:25:05.390Z,32.40
2022-11-09T16:27:53.006Z,24.92
2022-11-09T16:30:45.514Z,21.00
2022-11-09T16:33:34.169Z,27.23
2022-11-09T16:36:24.731Z,25.88
2022-11-09T16:39:17.493Z,32.97
2022-11-09T16:42:12.277Z,22.07
2022-11-09T16:45:14.135Z,21.45
2022-11-09T16:48:04.644Z,23.65
2022-11-09T16:50:54.335Z,33.13
2022-11-09T16:53:41.765Z,21.05
2022-11-09T16:56:35.099Z,30.48
2022-11-09T16:59:24.321Z,22.52
2022-11-09T17:02:13.461Z,20.25
2022-11-09T17:05:02.066Z,21.60
2022-11-09T17:07:57.791Z,20.05
2022-11-09T17:10:47.230Z,18.63
2022-11-09T17:13:44.874Z,19.27
2022-11-09T17:16:48.050Z,16.85
2022-11-09T17:19:56.390Z,16.25
2022-11-09T17:22:56.902Z,27.08
2022-11-09T17:26:14.060Z,41.90
2022-11-09T17:29:17.497Z,46.67
2022-11-09T17:32:15.040Z,25.60
2022-11-09T17:35:08.979Z,24.25
2022-11-09T17:41:05.612Z,19.10
2022-11-09T17:43:53.591Z,17.33
2022-11-09T17:46:40.263Z,20.73
2022-11-09T17:49:27.069Z,26.30
2022-11-09T17:52:14.055Z,18.92
2022-11-09T17:55:01.051Z,27.85
2022-11-09T17:57:47.639Z,25.27
2022-11-09T18:00:34.571Z,16.98
2022-11-09T18:03:21.660Z,19.60
2022-11-09T18:06:19.891Z,26.60
2022-11-09T18:12:16.593Z,24.45
2022-11-09T18:15:03.718Z,29.85
2022-11-09T18:17:50.614Z,25.88
2022-11-09T18:20:39.412Z,38.28
2022-11-09T18:23:26.473Z,26.45
2022-11-09T18:26:14.328Z,21.83
2022-11-09T18:29:01.174Z,20.85
2022-11-09T18:31:48.029Z,32.60
2022-11-09T18:34:34.855Z,27.00
2022-11-09T18:37:21.485Z,19.52
2022-11-09T18:40:08.797Z,26.17
2022-11-09T18:42:55.417Z,31.38
2022-11-09T18:45:42.227Z,24.45
2022-11-09T18:48:29.656Z,37.33
2022-11-09T18:54:03.534Z,21.58
2022-11-09T18:56:50.397Z,36.92
2022-11-09T18:59:40.376Z,25.58
2022-11-09T19:02:28.704Z,36.53
2022-11-09T19:05:15.166Z,42.50
2022-11-09T19:08:01.974Z,30.65
2022-11-09T19:10:48.346Z,33.15
2022-11-09T19:13:35.089Z,30.67
2022-11-09T19:16:22.152Z,88.45
2022-11-09T19:19:16.767Z,62.88
2022-11-09T19:22:03.310Z,40.55
2022-11-09T19:24:50.598Z,53.00
2022-11-09T19:27:37.275Z,54.95
2022-11-09T19:30:26.100Z,54.38
2022-11-09T19:33:12.567Z,33.05
2022-11-09T19:36:27.917Z,34.75
2022-11-09T19:39:06.579Z,34.58
2022-11-09T19:41:53.277Z,28.17
2022-11-09T19:44:39.984Z,32.88
2022-11-09T19:47:27.167Z,24.40
2022-11-09T19:50:13.566Z,44.15
2022-11-09T19:53:00.468Z,41.67
2022-11-09T19:55:47.228Z,29.70
2022-11-09T19:58:34.105Z,34.70
2022-11-09T20:01:20.992Z,27.10
2022-11-09T20:04:10.696Z,33.88
2022-11-09T20:06:57.530Z,35.30
2022-11-09T20:09:44.609Z,25.45
2022-11-09T20:12:49.465Z,29.02
2022-11-09T20:15:37.776Z,38.13
2022-11-09T20:18:25.735Z,31.45
2022-11-09T20:21:12.593Z,33.25
2022-11-09T20:23:59.218Z,31.30
2022-11-09T20:26:46.721Z,25.98
2022-11-09T20:29:33.149Z,38.28
2022-11-09T20:32:21.692Z,32.58
2022-11-09T20:35:09.215Z,33.97
2022-11-09T20:37:57.064Z,33.33
2022-11-09T20:40:43.916Z,34.50
2022-11-09T20:43:31.495Z,33.85
2022-11-09T20:46:23.320Z,35.33
2022-11-09T20:49:10.310Z,32.47
2022-11-09T20:51:57.164Z,35.40
2022-11-09T20:54:45.339Z,34.50
2022-11-09T20:57:32.877Z,39.83
2022-11-09T21:00:24.380Z,28.77
2022-11-09T21:03:11.852Z,33.00
2022-11-09T21:06:01.855Z,34.97
2022-11-09T21:08:53.928Z,34.65
2022-11-09T21:12:01.015Z,41.85
2022-11-09T21:14:48.258Z,32.40
2022-11-09T21:17:36.426Z,42.42
2022-11-09T21:20:22.752Z,40.97
2022-11-09T21:23:14.007Z,41.05
2022-11-09T21:26:19.505Z,52.30
2022-11-09T21:29:28.833Z,45.17
2022-11-09T21:32:16.255Z,40.00
2022-11-09T21:35:04.124Z,38.22
2022-11-09T21:37:50.905Z,41.40
2022-11-09T21:40:37.746Z,38.15
2022-11-09T21:43:24.499Z,37.92
2022-11-09T21:46:11.680Z,46.00
2022-11-09T21:48:58.228Z,39.63
2022-11-09T21:51:47.758Z,44.05
2022-11-09T21:54:34.638Z,37.17
2022-11-09T21:57:21.681Z,35.58
2022-11-09T22:00:09.856Z,45.65
2022-11-09T22:02:56.915Z,49.80
2022-11-09T22:05:43.403Z,38.63
2022-11-09T22:08:30.319Z,41.72
2022-11-09T22:11:20.439Z,37.80
2022-11-09T22:14:28.996Z,38.72
2022-11-09T22:17:15.709Z,34.67
2022-11-09T22:20:21.070Z,30.75
2022-11-09T22:23:08.620Z,31.55
2022-11-09T22:25:55.291Z,34.20
2022-11-09T22:28:42.679Z,28.50
2022-11-09T22:31:29.767Z,30.83
2022-11-09T22:34:16.318Z,25.40
2022-11-09T22:37:03.091Z,31.75
2022-11-09T22:39:49.587Z,27.70
2022-11-09T22:42:36.348Z,24.58
2022-11-09T22:45:25.459Z,26.15
2022-11-09T22:48:12.669Z,22.35
2022-11-09T22:50:59.098Z,22.52
2022-11-09T22:53:51.528Z,22.25
2022-11-09T22:56:37.980Z,29.63
2022-11-09T22:59:24.947Z,26.30
2022-11-09T23:02:11.388Z,22.65
2022-11-09T23:04:58.078Z,23.50
2022-11-09T23:07:44.908Z,23.60
2022-11-09T23:10:33.645Z,25.95
2022-11-09T23:13:20.237Z,21.88
2022-11-09T23:16:10.756Z,23.48
2022-11-09T23:18:57.259Z,29.67
2022-11-09T23:21:43.901Z,21.98
2022-11-09T23:24:49.178Z,24.48
2022-11-09T23:27:36.160Z,24.85
2022-11-09T23:30:23.580Z,20.17
2022-11-09T23:33:12.110Z,23.05
2022-11-09T23:36:01.500Z,20.63
2022-11-09T23:38:48.499Z,26.05
2022-11-09T23:41:35.086Z,22.83
2022-11-09T23:44:22.115Z,16.15
2022-11-09T23:47:08.727Z,25.00
2022-11-09T23:49:55.757Z,22.05
2022-11-09T23:52:42.040Z,21.75
2022-11-09T23:55:30.207Z,21.70
2022-11-09T23:58:17.527Z,23.83
